createdAt,value
2018-06-20T00:01:22.422Z,47.50
2018-06-20T00:03:51.099Z,47.70
2018-06-20T00:06:20.185Z,47.90
2018-06-20T00:08:52.219Z,48.10
2018-06-20T00:11:27.982Z,48.10
2018-06-20T00:13:57.465Z,48.30
2018-06-20T00:16:27.439Z,48.10
2018-06-20T00:18:57.941Z,48.00
2018-06-20T00:21:28.248Z,47.80
2018-06-20T00:24:00.837Z,48.10
2018-06-20T00:26:30.572Z,48.40
2018-06-20T00:28:59.807Z,48.10
2018-06-20T00:31:29.399Z,48.50
2018-06-20T00:34:02.804Z,48.70
2018-06-20T00:36:32.123Z,48.60
2018-06-20T00:39:01.976Z,48.80
2018-06-20T00:41:37.299Z,48.70
2018-06-20T00:44:06.216Z,48.70
2018-06-20T00:46:35.950Z,49.00
2018-06-20T00:49:06.897Z,48.80
2018-06-20T00:51:36.186Z,48.50
2018-06-20T00:54:05.480Z,48.60
2018-06-20T00:56:37.581Z,48.80
2018-06-20T00:59:08.222Z,48.70
2018-06-20T01:01:39.034Z,48.50
2018-06-20T01:04:09.063Z,48.50
2018-06-20T01:06:42.600Z,48.60
2018-06-20T01:09:12.864Z,48.70
2018-06-20T01:11:42.372Z,48.60
2018-06-20T01:14:11.247Z,48.60
2018-06-20T01:16:40.691Z,48.60
2018-06-20T01:19:10.692Z,48.60
2018-06-20T01:21:40.051Z,48.60
2018-06-20T01:24:10.358Z,48.70
2018-06-20T01:26:39.224Z,48.70
2018-06-20T01:29:09.360Z,48.80
2018-06-20T01:31:39.360Z,49.00
2018-06-20T01:34:09.076Z,49.20
2018-06-20T01:36:37.638Z,49.00
2018-06-20T01:39:09.627Z,49.10
2018-06-20T01:41:50.062Z,49.20
2018-06-20T01:44:19.556Z,49.30
2018-06-20T01:46:48.115Z,49.20
2018-06-20T01:49:19.994Z,49.20
2018-06-20T01:51:49.596Z,49.10
2018-06-20T01:54:18.634Z,49.00
2018-06-20T01:56:47.235Z,49.10
2018-06-20T01:59:16.178Z,49.30
2018-06-20T02:04:21.452Z,49.40
2018-06-20T02:06:49.882Z,49.30
2018-06-20T02:09:18.943Z,49.60
2018-06-20T02:11:48.314Z,49.40
2018-06-20T02:14:18.814Z,49.40
2018-06-20T02:16:49.664Z,49.40
2018-06-20T02:19:25.752Z,49.50
2018-06-20T02:21:56.117Z,49.50
2018-06-20T02:24:24.782Z,49.70
2018-06-20T02:26:54.152Z,50.00
2018-06-20T02:29:22.483Z,50.00
2018-06-20T02:31:52.344Z,50.10
2018-06-20T02:34:23.677Z,50.20
2018-06-20T02:36:57.677Z,50.40
2018-06-20T02:39:27.092Z,50.30
2018-06-20T02:41:57.850Z,50.50
2018-06-20T02:44:27.978Z,51.00
2018-06-20T02:47:00.258Z,50.90
2018-06-20T02:49:29.659Z,51.10
2018-06-20T02:52:00.414Z,51.20
2018-06-20T02:54:30.318Z,51.20
2018-06-20T02:59:33.145Z,51.20
2018-06-20T03:02:02.059Z,51.40
2018-06-20T03:04:34.068Z,51.50
2018-06-20T03:09:39.622Z,51.70
2018-06-20T03:12:08.499Z,51.60
2018-06-20T03:14:42.879Z,51.80
2018-06-20T03:17:12.453Z,51.80
2018-06-20T03:19:42.599Z,51.80
2018-06-20T03:22:14.878Z,51.70
2018-06-20T03:24:44.531Z,51.70
2018-06-20T03:27:13.889Z,51.50
2018-06-20T03:29:47.975Z,51.50
2018-06-20T03:32:22.082Z,51.60
2018-06-20T03:34:53.251Z,51.50
2018-06-20T03:37:26.138Z,51.40
2018-06-20T03:39:55.842Z,51.30
2018-06-20T03:42:30.653Z,51.10
2018-06-20T03:44:59.282Z,51.00
2018-06-20T03:47:31.287Z,50.80
2018-06-20T03:50:03.635Z,50.90
2018-06-20T03:57:56.181Z,50.80
2018-06-20T04:00:29.867Z,50.70
2018-06-20T04:03:08.718Z,50.40
2018-06-20T04:05:38.918Z,50.20
2018-06-20T04:08:07.942Z,50.00
2018-06-20T04:10:36.194Z,50.00
2018-06-20T04:13:05.708Z,49.90
2018-06-20T04:15:34.236Z,49.70
2018-06-20T04:18:12.761Z,49.50
2018-06-20T04:20:43.918Z,49.30
2018-06-20T04:23:17.199Z,49.00
2018-06-20T04:25:49.246Z,48.80
2018-06-20T04:28:17.861Z,48.70
2018-06-20T04:30:56.834Z,48.50
2018-06-20T04:33:28.020Z,48.40
2018-06-20T04:35:58.060Z,48.50
2018-06-20T04:41:14.488Z,48.40
2018-06-20T04:43:43.066Z,48.30
2018-06-20T04:48:57.651Z,48.00
2018-06-20T04:51:43.013Z,47.90
2018-06-20T04:54:13.749Z,47.60
2018-06-20T04:56:43.664Z,47.40
2018-06-20T04:59:13.139Z,47.50
2018-06-20T05:01:42.114Z,47.40
2018-06-20T05:04:10.538Z,47.40
2018-06-20T05:06:39.792Z,47.30
2018-06-20T05:09:13.577Z,47.00
2018-06-20T05:11:42.046Z,46.70
2018-06-20T05:14:11.482Z,46.70
2018-06-20T05:16:42.685Z,46.60
2018-06-20T05:21:47.963Z,46.30
2018-06-20T05:24:25.075Z,46.50
2018-06-20T05:26:55.427Z,46.50
2018-06-20T05:29:41.683Z,46.40
2018-06-20T05:37:58.287Z,46.20
2018-06-20T05:40:27.460Z,46.30
2018-06-20T05:45:33.472Z,46.20
2018-06-20T05:48:02.716Z,46.00
2018-06-20T05:50:31.433Z,46.00
2018-06-20T05:53:00.823Z,46.10
2018-06-20T05:55:37.132Z,46.00
2018-06-20T05:58:13.585Z,46.10
2018-06-20T06:00:52.303Z,46.20
2018-06-20T06:03:21.202Z,46.30
2018-06-20T06:06:01.515Z,46.40
2018-06-20T06:08:30.817Z,46.50
2018-06-20T06:11:10.390Z,46.60
2018-06-20T06:13:39.724Z,46.40
2018-06-20T06:16:11.222Z,46.40
2018-06-20T06:18:48.047Z,46.70
2018-06-20T06:21:25.105Z,46.90
2018-06-20T06:26:35.040Z,47.30
2018-06-20T06:29:04.730Z,47.40
2018-06-20T06:31:48.348Z,47.40
2018-06-20T06:34:19.079Z,47.50
2018-06-20T06:36:52.748Z,47.50
2018-06-20T06:39:27.605Z,47.20
2018-06-20T06:41:59.016Z,47.10
2018-06-20T06:44:27.486Z,47.10
2018-06-20T06:46:56.555Z,47.00
2018-06-20T06:49:26.283Z,47.00
2018-06-20T06:52:05.019Z,46.90
2018-06-20T06:54:36.583Z,47.00
2018-06-20T06:57:06.596Z,46.80
2018-06-20T06:59:35.817Z,46.70
2018-06-20T07:02:17.486Z,46.60
2018-06-20T07:07:33.498Z,46.50
2018-06-20T07:12:53.247Z,46.20
2018-06-20T07:21:04.231Z,45.40
2018-06-20T07:23:38.693Z,45.10
2018-06-20T07:37:19.924Z,43.20
2018-06-20T07:42:31.451Z,42.80
2018-06-20T07:45:09.909Z,42.90
2018-06-20T07:47:55.036Z,43.10
2018-06-20T07:50:28.365Z,43.30
2018-06-20T07:53:03.131Z,43.80
2018-06-20T07:55:36.820Z,44.20
2018-06-20T07:58:07.889Z,44.40
2018-06-20T08:00:56.357Z,44.40
2018-06-20T08:03:31.303Z,44.50
2018-06-20T08:06:12.893Z,44.20
2018-06-20T08:08:49.170Z,44.20
2018-06-20T08:11:26.427Z,44.50
2018-06-20T08:14:01.198Z,44.90
2018-06-20T08:16:38.528Z,45.20
2018-06-20T08:19:18.872Z,45.60
2018-06-20T08:21:53.648Z,45.50
2018-06-20T08:24:24.332Z,45.40
2018-06-20T08:26:54.454Z,45.60
2018-06-20T08:29:23.836Z,45.60
2018-06-20T08:31:57.707Z,45.50
2018-06-20T08:34:26.010Z,45.20
2018-06-20T08:39:37.479Z,44.00
2018-06-20T08:42:09.024Z,43.50
2018-06-20T08:44:40.804Z,43.40
2018-06-20T08:47:12.465Z,42.90
2018-06-20T08:49:45.797Z,42.30
2018-06-20T08:52:30.525Z,42.20
2018-06-20T08:54:59.374Z,41.20
2018-06-20T08:57:32.156Z,41.30
2018-06-20T09:00:02.070Z,41.60
2018-06-20T09:02:36.757Z,42.00
2018-06-20T09:05:16.661Z,42.70
2018-06-20T09:09:53.330Z,43.30
2018-06-20T09:12:28.199Z,43.50
2018-06-20T09:15:02.040Z,43.60
2018-06-20T09:17:35.758Z,43.80
2018-06-20T09:20:05.065Z,44.50
2018-06-20T09:22:39.290Z,45.20
2018-06-20T09:25:11.268Z,45.90
2018-06-20T09:27:40.386Z,46.10
2018-06-20T09:30:09.153Z,46.60
2018-06-20T09:32:41.420Z,46.80
2018-06-20T09:35:13.649Z,46.70
2018-06-20T09:37:42.773Z,46.70
2018-06-20T09:40:15.304Z,46.70
2018-06-20T09:42:51.549Z,46.70
2018-06-20T09:45:20.314Z,46.90
2018-06-20T09:47:51.673Z,47.10
2018-06-20T09:50:26.252Z,47.20
2018-06-20T09:52:54.987Z,47.10
2018-06-20T09:55:25.397Z,47.00
2018-06-20T09:57:56.427Z,46.90
2018-06-20T10:03:19.605Z,47.10
2018-06-20T10:05:58.363Z,46.90
2018-06-20T10:08:33.488Z,46.70
2018-06-20T10:11:14.157Z,46.80
2018-06-20T10:13:44.175Z,47.00
2018-06-20T10:16:17.662Z,47.20
2018-06-20T10:18:54.471Z,47.30
2018-06-20T10:21:28.077Z,47.20
2018-06-20T10:23:58.532Z,47.20
2018-06-20T10:26:29.983Z,47.30
2018-06-20T10:28:59.023Z,47.30
2018-06-20T10:31:58.431Z,47.50
2018-06-20T10:34:33.139Z,47.50
2018-06-20T10:37:02.625Z,47.50
2018-06-20T10:39:44.057Z,47.40
2018-06-20T10:42:16.944Z,47.20
2018-06-20T10:44:47.814Z,47.00
2018-06-20T10:47:23.875Z,46.70
2018-06-20T10:49:53.179Z,46.80
2018-06-20T10:52:22.274Z,46.90
2018-06-20T10:54:52.970Z,46.90
2018-06-20T10:57:30.052Z,46.80
2018-06-20T11:00:10.572Z,46.50
2018-06-20T11:02:45.412Z,46.40
2018-06-20T11:05:20.338Z,46.60
2018-06-20T11:07:56.041Z,46.30
2018-06-20T11:10:36.130Z,46.70
2018-06-20T11:13:14.791Z,46.10
2018-06-20T11:18:27.251Z,45.20
2018-06-20T11:21:01.316Z,44.80
2018-06-20T11:23:34.124Z,44.80
2018-06-20T11:26:02.746Z,44.60
2018-06-20T11:28:31.808Z,44.50
2018-06-20T11:31:01.512Z,44.50
2018-06-20T11:33:29.776Z,44.60
2018-06-20T11:36:00.213Z,44.80
2018-06-20T11:38:29.573Z,44.90
2018-06-20T11:41:01.095Z,44.90
2018-06-20T11:43:31.735Z,44.90
2018-06-20T11:48:48.189Z,44.90
2018-06-20T11:53:59.506Z,44.70
2018-06-20T11:56:32.056Z,44.80
2018-06-20T12:02:18.841Z,44.10
2018-06-20T12:04:57.603Z,43.40
2018-06-20T12:07:33.769Z,43.00
2018-06-20T12:10:10.045Z,42.80
2018-06-20T12:12:46.711Z,42.80
2018-06-20T12:15:29.226Z,43.00
2018-06-20T12:20:52.407Z,43.30
2018-06-20T12:23:33.339Z,43.50
2018-06-20T12:43:09.668Z,43.00
2018-06-20T12:51:22.686Z,43.20
2018-06-20T12:54:14.536Z,43.30
2018-06-20T12:56:54.490Z,43.40
2018-06-20T13:07:43.302Z,43.60
2018-06-20T13:12:58.360Z,43.20
2018-06-20T13:15:34.939Z,43.00
2018-06-20T13:20:44.902Z,43.20
2018-06-20T13:23:26.281Z,43.20
2018-06-20T13:29:31.530Z,43.30
2018-06-20T13:32:09.269Z,43.10
2018-06-20T13:37:38.736Z,43.20
2018-06-20T13:40:26.287Z,43.00
2018-06-20T13:46:05.579Z,42.60
2018-06-20T13:51:25.531Z,42.00
2018-06-20T13:53:57.868Z,41.80
2018-06-20T13:56:27.747Z,41.60
2018-06-20T13:59:03.505Z,41.60
2018-06-20T14:01:35.143Z,41.60
2018-06-20T14:04:05.419Z,41.50
2018-06-20T14:09:20.262Z,41.20
2018-06-20T14:12:02.736Z,41.30
2018-06-20T14:14:43.172Z,41.30
2018-06-20T14:17:24.096Z,41.10
2018-06-20T14:22:54.784Z,40.80
2018-06-20T14:28:06.230Z,41.00
2018-06-20T14:33:22.484Z,41.10
2018-06-20T14:36:00.576Z,41.10
2018-06-20T14:38:38.049Z,41.30
2018-06-20T14:41:33.294Z,41.70
2018-06-20T14:44:21.029Z,42.00
2018-06-20T14:47:00.291Z,42.30
2018-06-20T14:55:17.125Z,42.40
2018-06-20T14:57:50.506Z,42.60
2018-06-20T15:00:30.724Z,42.40
2018-06-20T15:03:13.371Z,42.20
2018-06-20T15:08:41.798Z,42.00
2018-06-20T15:11:31.242Z,42.00
2018-06-20T15:14:09.528Z,42.20
2018-06-20T15:19:25.714Z,42.00
2018-06-20T15:33:20.110Z,34.50
2018-06-20T15:36:03.467Z,35.50
2018-06-20T15:41:18.665Z,34.60
2018-06-20T15:49:27.447Z,33.00
2018-06-20T15:57:56.670Z,33.70
2018-06-20T16:00:45.560Z,33.20
2018-06-20T16:03:39.066Z,32.40
2018-06-20T16:08:53.124Z,31.10
2018-06-20T16:11:28.639Z,31.10
2018-06-20T16:16:40.283Z,32.50
2018-06-20T16:22:02.048Z,35.00
2018-06-20T16:24:37.012Z,34.70
2018-06-20T16:27:16.873Z,34.10
2018-06-20T16:32:31.740Z,34.60
2018-06-20T16:35:12.190Z,34.30
2018-06-20T16:37:46.004Z,34.80
2018-06-20T16:40:15.983Z,35.80
2018-06-20T16:42:49.610Z,36.70
2018-06-20T16:45:27.731Z,37.40
2018-06-20T16:48:02.342Z,38.00
2018-06-20T16:50:38.108Z,38.80
2018-06-20T16:53:16.114Z,39.40
2018-06-20T16:55:48.232Z,39.70
2018-06-20T16:58:17.765Z,40.00
2018-06-20T17:06:12.915Z,41.30
2018-06-20T17:08:47.213Z,41.60
2018-06-20T17:11:23.997Z,41.90
2018-06-20T17:14:08.730Z,42.30
2018-06-20T17:16:48.581Z,42.90
2018-06-20T17:19:27.467Z,43.50
2018-06-20T17:24:59.956Z,44.20
2018-06-20T17:27:44.346Z,44.30
2018-06-20T17:30:15.845Z,44.50
2018-06-20T17:36:16.976Z,44.80
2018-06-20T17:38:46.012Z,45.00
2018-06-20T19:36:59.987Z,48.40
2018-06-20T19:39:35.115Z,50.80
2018-06-20T19:42:10.429Z,51.30
2018-06-20T19:44:39.662Z,50.70
2018-06-20T19:49:37.383Z,50.70
2018-06-20T19:52:10.191Z,50.70
2018-06-20T19:54:40.475Z,50.80
2018-06-20T19:57:11.519Z,50.90
2018-06-20T19:59:41.252Z,50.90
2018-06-20T20:05:34.198Z,51.20
2018-06-20T20:08:04.508Z,51.30
2018-06-20T20:10:38.847Z,51.40
2018-06-20T20:13:12.462Z,51.50
2018-06-20T20:15:42.853Z,51.70
2018-06-20T20:18:12.801Z,51.80
2018-06-20T20:20:43.438Z,51.90
2018-06-20T20:23:17.919Z,52.10
2018-06-20T20:25:55.357Z,52.20
2018-06-20T20:28:26.133Z,52.40
2018-06-20T20:31:00.391Z,52.60
2018-06-20T20:33:35.423Z,52.80
2018-06-20T20:36:04.668Z,53.00
2018-06-20T20:41:19.236Z,53.40
2018-06-20T20:43:49.550Z,53.70
2018-06-20T20:51:27.171Z,54.30
2018-06-20T20:54:04.759Z,55.00
2018-06-20T20:56:43.259Z,54.70
2018-06-20T20:59:13.046Z,55.00
2018-06-20T21:01:43.380Z,55.20
2018-06-20T21:04:12.058Z,55.40
2018-06-20T21:06:41.083Z,55.60
2018-06-20T21:09:11.121Z,55.80
2018-06-20T21:15:11.148Z,55.80
2018-06-20T21:17:41.515Z,55.80
2018-06-20T21:20:32.787Z,56.00
2018-06-20T21:23:02.860Z,56.10
2018-06-20T21:25:33.228Z,56.00
2018-06-20T21:28:04.471Z,56.00
2018-06-20T21:30:47.387Z,56.00
2018-06-20T21:33:21.986Z,56.20
2018-06-20T21:35:55.049Z,56.40
2018-06-20T21:38:30.875Z,56.40
2018-06-20T21:43:30.298Z,56.30
2018-06-20T21:46:00.206Z,56.00
2018-06-20T21:48:32.151Z,55.90
2018-06-20T21:51:01.265Z,55.80
2018-06-20T21:53:31.919Z,55.90
2018-06-20T21:56:00.247Z,56.00
2018-06-20T21:58:29.221Z,56.00
2018-06-20T22:03:33.400Z,56.10
2018-06-20T22:06:04.134Z,56.10
2018-06-20T22:08:34.621Z,56.00
2018-06-20T22:11:09.339Z,56.20
2018-06-20T22:13:37.860Z,56.30
2018-06-20T22:16:09.072Z,56.40
2018-06-20T22:18:38.518Z,56.50
2018-06-20T22:21:09.013Z,56.60
2018-06-20T22:23:38.331Z,56.70
2018-06-20T22:26:08.355Z,56.80
2018-06-20T22:28:41.451Z,56.90
2018-06-20T22:31:29.993Z,56.90
2018-06-20T22:37:02.407Z,57.10
2018-06-20T22:39:39.434Z,57.10
2018-06-20T22:42:13.701Z,57.20
2018-06-20T22:44:44.783Z,57.20
2018-06-20T22:49:47.950Z,57.30
2018-06-20T22:55:02.363Z,57.40
2018-06-20T22:57:30.884Z,57.50
2018-06-20T23:00:03.434Z,57.60
2018-06-20T23:02:31.604Z,57.60
2018-06-20T23:05:00.195Z,57.60
2018-06-20T23:07:36.868Z,57.60
2018-06-20T23:10:06.540Z,57.70
2018-06-20T23:12:36.631Z,57.70
2018-06-20T23:15:05.660Z,57.60
2018-06-20T23:17:34.372Z,57.50
2018-06-20T23:20:04.047Z,57.60
2018-06-20T23:22:33.718Z,57.70
2018-06-20T23:25:02.659Z,57.70
2018-06-20T23:27:30.987Z,57.70
2018-06-20T23:32:29.431Z,57.90
2018-06-20T23:34:59.025Z,58.00
2018-06-20T23:37:28.203Z,58.60
2018-06-20T23:39:57.134Z,58.10
2018-06-20T23:42:36.222Z,58.20
2018-06-20T23:45:06.331Z,58.20
2018-06-20T23:47:36.605Z,58.60
2018-06-20T23:50:10.493Z,58.70
2018-06-20T23:52:40.370Z,58.90
2018-06-20T23:55:18.512Z,59.10
